Time,TemperatureF,DewpointF,PressureIn,WindDirection,WindDirectionDegrees,WindSpeedMPH,WindSpeedGustMPH,Humidity,HourlyPrecipIn,Conditions,Clouds,dailyrainin,SoftwareType,DateUTC
2013-03-02 00:00:00,5.4,2.9,30.24,NE,39,0.0,0.0,89,0.00,,SKC,0.00,VWS V14.01,2013-03-02 06:00:00,
2013-03-02 00:01:00,6.4,3.6,30.24,NE,38,0.0,0.0,88,0.00,,SKC,0.00,VWS V14.01,2013-03-02 06:01:00,
2013-03-02 00:05:00,5.4,2.9,30.24,NE,39,0.0,0.0,89,0.00,,SKC,0.00,VWS V14.01,2013-03-02 06:05:00,
2013-03-02 00:06:00,6.3,3.5,30.24,NE,37,0.0,0.0,88,0.00,,SKC,0.00,VWS V14.01,2013-03-02 06:06:00,
2013-03-02 00:10:00,5.4,2.9,30.24,NE,39,0.0,0.0,89,0.00,,SKC,0.00,VWS V14.01,2013-03-02 06:10:00,
2013-03-02 00:11:00,6.1,3.3,30.24,NE,38,0.0,0.0,88,0.00,,SKC,0.00,VWS V14.01,2013-03-02 06:11:00,
2013-03-02 00:15:00,5.5,3.0,30.24,NE,37,0.0,0.0,89,0.00,,SKC,0.00,VWS V14.01,2013-03-02 06:15:00,
2013-03-02 00:16:00,6.0,3.5,30.24,NE,39,0.0,0.0,89,0.00,,SKC,0.00,VWS V14.01,2013-03-02 06:16:00,
2013-03-02 00:20:00,5.7,3.2,30.24,NE,39,0.0,0.0,89,0.00,,SKC,0.00,VWS V14.01,2013-03-02 06:20:00,
2013-03-02 00:21:00,6.0,3.5,30.24,NE,39,0.0,0.0,89,0.00,,SKC,0.00,VWS V14.01,2013-03-02 06:21:00,
2013-03-02 00:25:00,5.6,3.1,30.24,NE,38,0.0,0.0,89,0.00,,SKC,0.00,VWS V14.01,2013-03-02 06:25:00,
2013-03-02 00:26:00,5.9,3.4,30.24,NE,39,0.0,0.0,89,0.00,,SKC,0.00,VWS V14.01,2013-03-02 06:26:00,
2013-03-02 00:30:00,5.5,2.7,30.24,NNW,348,0.0,1.0,88,0.00,,SKC,0.00,VWS V14.01,2013-03-02 06:30:00,
2013-03-02 00:31:00,5.8,3.3,30.24,NE,38,0.0,0.0,89,0.00,,SKC,0.00,VWS V14.01,2013-03-02 06:31:00,
2013-03-02 00:35:00,5.6,3.1,30.24,NNW,347,0.0,0.0,89,0.00,,SKC,0.00,VWS V14.01,2013-03-02 06:35:00,
2013-03-02 00:36:00,5.7,3.2,30.24,NE,38,0.0,0.0,89,0.00,,SKC,0.00,VWS V14.01,2013-03-02 06:36:00,
2013-03-02 00:40:00,5.9,3.6,30.24,NNW,347,0.0,0.0,90,0.00,,SKC,0.00,VWS V14.01,2013-03-02 06:40:00,
2013-03-02 00:41:00,5.8,3.5,30.24,NE,38,0.0,0.0,90,0.00,,SKC,0.00,VWS V14.01,2013-03-02 06:41:00,
2013-03-02 00:45:00,5.9,3.4,30.24,NNW,344,0.0,0.0,89,0.00,,SKC,0.00,VWS V14.01,2013-03-02 06:45:00,
2013-03-02 00:46:00,5.7,3.2,30.24,NE,39,0.0,0.0,89,0.00,,SKC,0.00,VWS V14.01,2013-03-02 06:46:00,
2013-03-02 00:50:00,6.0,3.5,30.24,NNW,344,0.0,0.0,89,0.00,,SKC,0.00,VWS V14.01,2013-03-02 06:50:00,
2013-03-02 00:51:00,5.5,3.0,30.24,NE,39,0.0,0.0,89,0.00,,SKC,0.00,VWS V14.01,2013-03-02 06:51:00,
2013-03-02 00:55:00,6.0,3.5,30.24,NNW,343,0.0,0.0,89,0.00,,SKC,0.00,VWS V14.01,2013-03-02 06:55:00,
2013-03-02 00:56:00,5.5,3.0,30.24,NE,39,0.0,0.0,89,0.00,,SKC,0.00,VWS V14.01,2013-03-02 06:56:00,
2013-03-02 01:00:00,6.2,3.7,30.24,NNW,344,0.0,0.0,89,0.00,,SKC,0.00,VWS V14.01,2013-03-02 07:00:00,
2013-03-02 01:01:00,5.4,2.9,30.24,NE,39,0.0,0.0,89,0.00,,SKC,0.00,VWS V14.01,2013-03-02 07:01:00,
2013-03-02 01:05:00,6.2,3.7,30.24,NNW,343,0.0,0.0,89,0.00,,SKC,0.00,VWS V14.01,2013-03-02 07:05:00,
2013-03-02 01:07:00,5.4,2.9,30.24,NE,39,0.0,0.0,89,0.00,,SKC,0.00,VWS V14.01,2013-03-02 07:07:00,
2013-03-02 01:10:00,6.2,3.9,30.24,NNW,343,0.0,0.0,90,0.00,,SKC,0.00,VWS V14.01,2013-03-02 07:10:00,
2013-03-02 01:12:00,5.4,2.9,30.24,NE,39,0.0,0.0,89,0.00,,SKC,0.00,VWS V14.01,2013-03-02 07:12:00,
2013-03-02 01:15:00,6.2,3.9,30.24,NNW,344,0.0,0.0,90,0.00,,SKC,0.00,VWS V14.01,2013-03-02 07:15:00,
2013-03-02 01:17:00,5.5,3.0,30.24,NE,38,0.0,0.0,89,0.00,,SKC,0.00,VWS V14.01,2013-03-02 07:17:00,
2013-03-02 01:20:00,6.2,3.9,30.24,NNW,344,0.0,0.0,90,0.00,,SKC,0.00,VWS V14.01,2013-03-02 07:20:00,
2013-03-02 01:22:00,5.7,3.2,30.24,NE,39,0.0,0.0,89,0.00,,SKC,0.00,VWS V14.01,2013-03-02 07:22:00,
2013-03-02 01:25:00,6.3,4.0,30.24,NNW,343,0.0,0.0,90,0.00,,SKC,0.00,VWS V14.01,2013-03-02 07:25:00,
2013-03-02 01:27:00,5.7,3.2,30.24,NE,38,0.0,0.0,89,0.00,,SKC,0.00,VWS V14.01,2013-03-02 07:27:00,
2013-03-02 01:30:00,6.1,3.6,30.23,NNW,343,0.0,0.0,89,0.00,,SKC,0.00,VWS V14.01,2013-03-02 07:30:00,
2013-03-02 01:32:00,5.5,2.7,30.24,NNW,348,0.0,1.0,88,0.00,,SKC,0.00,VWS V14.01,2013-03-02 07:32:00,
2013-03-02 01:35:00,6.1,3.6,30.23,NNW,343,0.0,0.0,89,0.00,,SKC,0.00,VWS V14.01,2013-03-02 07:35:00,
2013-03-02 01:37:00,5.6,3.1,30.24,NNW,348,0.0,0.0,89,0.00,,SKC,0.00,VWS V14.01,2013-03-02 07:37:00,
2013-03-02 01:40:00,6.1,3.8,30.23,NNW,344,0.0,0.0,90,0.00,,SKC,0.00,VWS V14.01,2013-03-02 07:40:00,
2013-03-02 01:42:00,5.9,3.6,30.24,NNW,348,0.0,0.0,90,0.00,,SKC,0.00,VWS V14.01,2013-03-02 07:42:00,
2013-03-02 01:45:00,5.9,3.6,30.22,NNW,344,0.0,0.0,90,0.00,,SKC,0.00,VWS V14.01,2013-03-02 07:45:00,
2013-03-02 01:47:00,5.9,3.4,30.24,NNW,344,0.0,0.0,89,0.00,,SKC,0.00,VWS V14.01,2013-03-02 07:47:00,
2013-03-02 01:50:00,5.8,3.5,30.22,NNW,344,0.0,0.0,90,0.00,,SKC,0.00,VWS V14.01,2013-03-02 07:50:00,
2013-03-02 01:52:00,6.0,3.5,30.24,NNW,343,0.0,0.0,89,0.00,,SKC,0.00,VWS V14.01,2013-03-02 07:52:00,
2013-03-02 01:55:00,5.4,2.9,30.22,NNW,343,0.0,0.0,89,0.00,,SKC,0.00,VWS V14.01,2013-03-02 07:55:00,
2013-03-02 01:57:00,6.0,3.5,30.24,NNW,343,0.0,0.0,89,0.00,,SKC,0.00,VWS V14.01,2013-03-02 07:57:00,
2013-03-02 02:00:00,5.1,2.6,30.22,NNW,343,0.0,0.0,89,0.00,,SKC,0.00,VWS V14.01,2013-03-02 08:00:00,
2013-03-02 02:02:00,6.1,3.6,30.24,NNW,343,0.0,0.0,89,0.00,,SKC,0.00,VWS V14.01,2013-03-02 08:02:00,
2013-03-02 02:05:00,5.1,2.8,30.22,NNW,343,0.0,0.0,90,0.00,,SKC,0.00,VWS V14.01,2013-03-02 08:05:00,
2013-03-02 02:07:00,6.2,3.7,30.24,NNW,343,0.0,0.0,89,0.00,,SKC,0.00,VWS V14.01,2013-03-02 08:07:00,
2013-03-02 02:10:00,4.9,2.6,30.22,NNW,344,0.0,0.0,90,0.00,,SKC,0.00,VWS V14.01,2013-03-02 08:10:00,
2013-03-02 02:12:00,6.2,3.7,30.24,NNW,343,0.0,0.0,89,0.00,,SKC,0.00,VWS V14.01,2013-03-02 08:12:00,
2013-03-02 02:15:00,4.7,2.4,30.22,NNW,343,0.0,0.0,90,0.00,,SKC,0.00,VWS V14.01,2013-03-02 08:15:00,
2013-03-02 02:17:00,6.2,3.9,30.24,NNW,344,0.0,0.0,90,0.00,,SKC,0.00,VWS V14.01,2013-03-02 08:17:00,
2013-03-02 02:20:00,4.7,2.4,30.22,NNW,343,0.0,0.0,90,0.00,,SKC,0.00,VWS V14.01,2013-03-02 08:20:00,
2013-03-02 02:22:00,6.2,3.9,30.24,NNW,344,0.0,0.0,90,0.00,,SKC,0.00,VWS V14.01,2013-03-02 08:22:00,
2013-03-02 02:25:00,4.5,2.2,30.22,NNW,344,0.0,0.0,90,0.00,,SKC,0.00,VWS V14.01,2013-03-02 08:25:00,
2013-03-02 02:27:00,6.3,4.0,30.24,NNW,344,0.0,0.0,90,0.00,,SKC,0.00,VWS V14.01,2013-03-02 08:27:00,
2013-03-02 02:30:00,4.4,2.1,30.22,NNW,343,0.0,0.0,90,0.00,,SKC,0.00,VWS V14.01,2013-03-02 08:30:00,
2013-03-02 02:32:00,6.2,3.7,30.23,NNW,343,0.0,0.0,89,0.00,,SKC,0.00,VWS V14.01,2013-03-02 08:32:00,
2013-03-02 02:35:00,4.4,2.1,30.22,NNW,343,0.0,0.0,90,0.00,,SKC,0.00,VWS V14.01,2013-03-02 08:35:00,
2013-03-02 02:37:00,6.1,3.6,30.23,NNW,344,0.0,0.0,89,0.00,,SKC,0.00,VWS V14.01,2013-03-02 08:37:00,
2013-03-02 02:40:00,4.3,2.0,30.22,NNW,344,0.0,0.0,90,0.00,,SKC,0.00,VWS V14.01,2013-03-02 08:40:00,
2013-03-02 02:42:00,6.0,3.7,30.23,NNW,343,0.0,0.0,90,0.00,,SKC,0.00,VWS V14.01,2013-03-02 08:42:00,
2013-03-02 02:45:00,4.3,2.3,30.22,NNW,344,0.0,0.0,91,0.00,,SKC,0.00,VWS V14.01,2013-03-02 08:45:00,
2013-03-02 02:47:00,5.9,3.6,30.22,NNW,344,0.0,0.0,90,0.00,,SKC,0.00,VWS V14.01,2013-03-02 08:47:00,
2013-03-02 02:50:00,4.3,2.3,30.22,NNW,343,0.0,0.0,91,0.00,,SKC,0.00,VWS V14.01,2013-03-02 08:50:00,
2013-03-02 02:52:00,5.8,3.5,30.22,NNW,344,0.0,0.0,90,0.00,,SKC,0.00,VWS V14.01,2013-03-02 08:52:00,
2013-03-02 02:55:00,4.3,2.3,30.22,NNW,343,0.0,0.0,91,0.00,,SKC,0.00,VWS V14.01,2013-03-02 08:55:00,
2013-03-02 02:57:00,5.4,2.9,30.22,NNW,343,0.0,0.0,89,0.00,,SKC,0.00,VWS V14.01,2013-03-02 08:57:00,
2013-03-02 03:00:00,4.3,2.3,30.22,NNW,344,0.0,0.0,91,0.00,,SKC,0.00,VWS V14.01,2013-03-02 09:00:00,
2013-03-02 03:02:00,5.1,2.6,30.22,NNW,344,0.0,0.0,89,0.00,,SKC,0.00,VWS V14.01,2013-03-02 09:02:00,
2013-03-02 03:05:00,4.2,2.2,30.22,NNW,343,0.0,0.0,91,0.00,,SKC,0.00,VWS V14.01,2013-03-02 09:05:00,
2013-03-02 03:07:00,5.1,2.8,30.22,NNW,343,0.0,0.0,90,0.00,,SKC,0.00,VWS V14.01,2013-03-02 09:07:00,
2013-03-02 03:10:00,4.2,2.2,30.22,NNW,344,0.0,0.0,91,0.00,,SKC,0.00,VWS V14.01,2013-03-02 09:10:00,
2013-03-02 03:12:00,4.9,2.6,30.22,NNW,344,0.0,0.0,90,0.00,,SKC,0.00,VWS V14.01,2013-03-02 09:12:00,
2013-03-02 03:15:00,4.4,2.4,30.22,NNW,343,0.0,0.0,91,0.00,,SKC,0.00,VWS V14.01,2013-03-02 09:15:00,
2013-03-02 03:17:00,4.7,2.4,30.22,NNW,343,0.0,0.0,90,0.00,,SKC,0.00,VWS V14.01,2013-03-02 09:17:00,
2013-03-02 03:20:00,4.6,2.6,30.22,NNW,343,0.0,0.0,91,0.00,,SKC,0.00,VWS V14.01,2013-03-02 09:20:00,
2013-03-02 03:22:00,4.6,2.3,30.22,NNW,343,0.0,0.0,90,0.00,,SKC,0.00,VWS V14.01,2013-03-02 09:22:00,
2013-03-02 03:25:00,4.8,2.8,30.22,NNW,343,0.0,0.0,91,0.00,,SKC,0.00,VWS V14.01,2013-03-02 09:25:00,
2013-03-02 03:27:00,4.5,2.2,30.22,NNW,344,0.0,0.0,90,0.00,,SKC,0.00,VWS V14.01,2013-03-02 09:27:00,
2013-03-02 03:30:00,5.1,3.0,30.23,NNW,344,0.0,0.0,91,0.00,,SKC,0.00,VWS V14.01,2013-03-02 09:30:00,
2013-03-02 03:32:00,4.4,2.1,30.22,NNW,343,0.0,0.0,90,0.00,,SKC,0.00,VWS V14.01,2013-03-02 09:32:00,
2013-03-02 03:35:00,5.2,3.2,30.23,NNW,343,0.0,0.0,91,0.00,,SKC,0.00,VWS V14.01,2013-03-02 09:35:00,
2013-03-02 03:37:00,4.4,2.1,30.22,NNW,344,0.0,0.0,90,0.00,,SKC,0.00,VWS V14.01,2013-03-02 09:37:00,
2013-03-02 03:40:00,5.1,3.0,30.23,NNW,344,0.0,0.0,91,0.00,,SKC,0.00,VWS V14.01,2013-03-02 09:40:00,
2013-03-02 03:42:00,4.3,2.0,30.22,NNW,344,0.0,0.0,90,0.00,,SKC,0.00,VWS V14.01,2013-03-02 09:42:00,
2013-03-02 03:45:00,4.6,2.1,30.23,NNW,343,0.0,0.0,89,0.00,,SKC,0.00,VWS V14.01,2013-03-02 09:45:00,
2013-03-02 03:47:00,4.3,2.3,30.22,NNW,343,0.0,0.0,91,0.00,,SKC,0.00,VWS V14.01,2013-03-02 09:47:00,
2013-03-02 03:50:00,4.1,1.6,30.23,NNW,343,0.0,0.0,89,0.00,,SKC,0.00,VWS V14.01,2013-03-02 09:50:00,
2013-03-02 03:52:00,4.3,2.3,30.22,NNW,343,0.0,0.0,91,0.00,,SKC,0.00,VWS V14.01,2013-03-02 09:52:00,
2013-03-02 03:55:00,3.7,1.2,30.23,NNW,343,0.0,0.0,89,0.00,,SKC,0.00,VWS V14.01,2013-03-02 09:55:00,
2013-03-02 03:57:00,4.3,2.3,30.22,NNW,343,0.0,0.0,91,0.00,,SKC,0.00,VWS V14.01,2013-03-02 09:57:00,
2013-03-02 04:00:00,3.2,0.7,30.23,NNW,344,0.0,0.0,89,0.00,,SKC,0.00,VWS V14.01,2013-03-02 10:00:00,
2013-03-02 04:02:00,4.3,2.3,30.22,NNW,344,0.0,0.0,91,0.00,,SKC,0.00,VWS V14.01,2013-03-02 10:02:00,
2013-03-02 04:05:00,2.7,0.2,30.23,NNW,344,0.0,0.0,89,0.00,,SKC,0.00,VWS V14.01,2013-03-02 10:05:00,
2013-03-02 04:07:00,4.2,2.2,30.22,NNW,343,0.0,0.0,91,0.00,,SKC,0.00,VWS V14.01,2013-03-02 10:07:00,
2013-03-02 04:10:00,2.4,-0.1,30.23,NNW,344,0.0,0.0,89,0.00,,SKC,0.00,VWS V14.01,2013-03-02 10:10:00,
2013-03-02 04:12:00,4.2,2.2,30.22,NNW,343,0.0,0.0,91,0.00,,SKC,0.00,VWS V14.01,2013-03-02 10:12:00,
2013-03-02 04:15:00,1.9,-0.6,30.23,NNW,343,0.0,0.0,89,0.00,,SKC,0.00,VWS V14.01,2013-03-02 10:15:00,
2013-03-02 04:17:00,4.5,2.5,30.22,NNW,344,0.0,0.0,91,0.00,,SKC,0.00,VWS V14.01,2013-03-02 10:17:00,
2013-03-02 04:20:00,1.6,-0.9,30.23,NNW,343,0.0,0.0,89,0.00,,SKC,0.00,VWS V14.01,2013-03-02 10:20:00,
2013-03-02 04:22:00,4.6,2.6,30.22,NNW,343,0.0,0.0,91,0.00,,SKC,0.00,VWS V14.01,2013-03-02 10:22:00,
2013-03-02 04:25:00,1.5,-0.8,30.23,NNW,343,0.0,0.0,90,0.00,,SKC,0.00,VWS V14.01,2013-03-02 10:25:00,
2013-03-02 04:27:00,4.8,2.8,30.22,NNW,343,0.0,0.0,91,0.00,,SKC,0.00,VWS V14.01,2013-03-02 10:27:00,
2013-03-02 04:30:00,1.6,-0.6,30.23,NNW,344,0.0,0.0,90,0.00,,SKC,0.00,VWS V14.01,2013-03-02 10:30:00,
2013-03-02 04:32:00,5.1,3.0,30.23,NNW,344,0.0,0.0,91,0.00,,SKC,0.00,VWS V14.01,2013-03-02 10:32:00,
2013-03-02 04:35:00,1.4,-0.9,30.23,NNW,343,0.0,0.0,90,0.00,,SKC,0.00,VWS V14.01,2013-03-02 10:35:00,
2013-03-02 04:37:00,5.2,3.2,30.23,NNW,344,0.0,0.0,91,0.00,,SKC,0.00,VWS V14.01,2013-03-02 10:37:00,
2013-03-02 04:40:00,1.2,-1.0,30.23,NNW,343,0.0,0.0,90,0.00,,SKC,0.00,VWS V14.01,2013-03-02 10:40:00,
2013-03-02 04:43:00,5.0,3.0,30.23,NNW,343,0.0,0.0,91,0.00,,SKC,0.00,VWS V14.01,2013-03-02 10:43:00,
2013-03-02 04:45:00,1.0,-1.2,30.23,NNW,343,0.0,0.0,90,0.00,,SKC,0.00,VWS V14.01,2013-03-02 10:45:00,
2013-03-02 04:48:00,4.5,2.0,30.23,NNW,344,0.0,0.0,89,0.00,,SKC,0.00,VWS V14.01,2013-03-02 10:48:00,
2013-03-02 04:50:00,1.0,-1.2,30.23,NNW,343,0.0,0.0,90,0.00,,SKC,0.00,VWS V14.01,2013-03-02 10:50:00,
2013-03-02 04:53:00,4.0,1.5,30.23,NNW,343,0.0,0.0,89,0.00,,SKC,0.00,VWS V14.01,2013-03-02 10:53:00,
2013-03-02 04:55:00,0.7,-1.5,30.23,NNW,343,0.0,0.0,90,0.00,,SKC,0.00,VWS V14.01,2013-03-02 10:55:00,
2013-03-02 04:58:00,3.6,1.1,30.23,NNW,343,0.0,0.0,89,0.00,,SKC,0.00,VWS V14.01,2013-03-02 10:58:00,
2013-03-02 05:00:00,0.3,-2.2,30.23,NNW,344,0.0,0.0,89,0.00,,SKC,0.00,VWS V14.01,2013-03-02 11:00:00,
2013-03-02 05:03:00,3.1,0.6,30.23,NNW,343,0.0,0.0,89,0.00,,SKC,0.00,VWS V14.01,2013-03-02 11:03:00,
2013-03-02 05:05:00,0.1,-2.5,30.23,NNW,343,0.0,0.0,89,0.00,,SKC,0.00,VWS V14.01,2013-03-02 11:05:00,
2013-03-02 05:08:00,2.6,0.1,30.23,NNW,343,0.0,0.0,89,0.00,,SKC,0.00,VWS V14.01,2013-03-02 11:08:00,
2013-03-02 05:10:00,0.5,-1.7,30.23,NNW,343,0.0,0.0,90,0.00,,SKC,0.00,VWS V14.01,2013-03-02 11:10:00,
2013-03-02 05:13:00,2.2,-0.3,30.23,NNW,343,0.0,0.0,89,0.00,,SKC,0.00,VWS V14.01,2013-03-02 11:13:00,
2013-03-02 05:15:00,0.8,-1.2,30.24,NNW,343,0.0,0.0,91,0.00,,SKC,0.00,VWS V14.01,2013-03-02 11:15:00,
2013-03-02 05:18:00,1.8,-0.7,30.23,NNW,343,0.0,0.0,89,0.00,,SKC,0.00,VWS V14.01,2013-03-02 11:18:00,
2013-03-02 05:20:00,0.6,-1.6,30.24,NNW,344,0.0,0.0,90,0.00,,SKC,0.00,VWS V14.01,2013-03-02 11:20:00,
2013-03-02 05:23:00,1.6,-0.9,30.23,NNW,344,0.0,0.0,89,0.00,,SKC,0.00,VWS V14.01,2013-03-02 11:23:00,
2013-03-02 05:25:00,0.1,-2.4,30.24,NNW,344,0.0,0.0,89,0.00,,SKC,0.00,VWS V14.01,2013-03-02 11:25:00,
2013-03-02 05:28:00,1.6,-0.6,30.23,NNW,344,0.0,0.0,90,0.00,,SKC,0.00,VWS V14.01,2013-03-02 11:28:00,
2013-03-02 05:30:00,-0.4,-3.1,30.24,NNW,343,0.0,0.0,88,0.00,,SKC,0.00,VWS V14.01,2013-03-02 11:30:00,
2013-03-02 05:33:00,1.6,-0.6,30.23,NNW,343,0.0,0.0,90,0.00,,SKC,0.00,VWS V14.01,2013-03-02 11:33:00,
2013-03-02 05:35:00,-0.7,-3.4,30.24,NNW,343,0.0,0.0,88,0.00,,SKC,0.00,VWS V14.01,2013-03-02 11:35:00,
2013-03-02 05:38:00,1.4,-0.9,30.23,NNW,344,0.0,0.0,90,0.00,,SKC,0.00,VWS V14.01,2013-03-02 11:38:00,
2013-03-02 05:40:00,-0.6,-3.1,30.24,NNW,344,0.0,0.0,89,0.00,,SKC,0.00,VWS V14.01,2013-03-02 11:40:00,
2013-03-02 05:43:00,1.1,-1.1,30.23,NNW,343,0.0,0.0,90,0.00,,SKC,0.00,VWS V14.01,2013-03-02 11:43:00,
2013-03-02 05:45:00,-0.7,-3.2,30.23,NNW,343,0.0,0.0,89,0.00,,SKC,0.00,VWS V14.01,2013-03-02 11:45:00,
2013-03-02 05:48:00,1.0,-1.2,30.23,NNW,344,0.0,0.0,90,0.00,,SKC,0.00,VWS V14.01,2013-03-02 11:48:00,
2013-03-02 05:50:00,-1.1,-3.8,30.23,NNW,344,0.0,0.0,88,0.00,,SKC,0.00,VWS V14.01,2013-03-02 11:50:00,
2013-03-02 05:53:00,1.0,-1.2,30.23,NNW,344,0.0,0.0,90,0.00,,SKC,0.00,VWS V14.01,2013-03-02 11:53:00,
2013-03-02 05:55:00,-1.6,-4.5,30.23,NNW,344,0.0,0.0,87,0.00,,SKC,0.00,VWS V14.01,2013-03-02 11:55:00,
2013-03-02 05:58:00,0.6,-1.6,30.23,NNW,344,0.0,0.0,90,0.00,,SKC,0.00,VWS V14.01,2013-03-02 11:58:00,
2013-03-02 06:00:00,-1.6,-4.3,30.23,NNW,343,0.0,0.0,88,0.00,,SKC,0.00,VWS V14.01,2013-03-02 12:00:00,
2013-03-02 06:03:00,0.2,-2.3,30.23,NNW,343,0.0,0.0,89,0.00,,SKC,0.00,VWS V14.01,2013-03-02 12:03:00,
2013-03-02 06:05:00,-2.0,-4.7,30.23,NNW,344,0.0,0.0,88,0.00,,SKC,0.00,VWS V14.01,2013-03-02 12:05:00,
2013-03-02 06:08:00,0.1,-2.5,30.23,NNW,344,0.0,0.0,89,0.00,,SKC,0.00,VWS V14.01,2013-03-02 12:08:00,
2013-03-02 06:10:00,-1.9,-4.6,30.23,NNW,343,0.0,0.0,88,0.00,,SKC,0.00,VWS V14.01,2013-03-02 12:10:00,
2013-03-02 06:13:00,0.6,-1.4,30.23,NNW,343,0.0,0.0,91,0.00,,SKC,0.00,VWS V14.01,2013-03-02 12:13:00,
2013-03-02 06:15:00,-1.7,-4.4,30.24,NNW,343,0.0,0.0,88,0.00,,SKC,0.00,VWS V14.01,2013-03-02 12:15:00,
2013-03-02 06:19:00,0.8,-1.2,30.24,NNW,344,0.0,0.0,91,0.00,,SKC,0.00,VWS V14.01,2013-03-02 12:19:00,
2013-03-02 06:20:00,-1.5,-4.2,30.24,NNW,344,0.0,0.0,88,0.00,,SKC,0.00,VWS V14.01,2013-03-02 12:20:00,
2013-03-02 06:24:00,0.4,-1.8,30.24,NNW,344,0.0,0.0,90,0.00,,SKC,0.00,VWS V14.01,2013-03-02 12:24:00,
2013-03-02 06:25:00,-1.0,-3.5,30.24,NNW,344,0.0,0.0,89,0.00,,SKC,0.00,VWS V14.01,2013-03-02 12:25:00,
2013-03-02 06:29:00,-0.1,-2.6,30.24,NNW,344,0.0,0.0,89,0.00,,SKC,0.00,VWS V14.01,2013-03-02 12:29:00,
2013-03-02 06:30:00,-0.7,-3.2,30.24,NNW,343,0.0,0.0,89,0.00,,SKC,0.00,VWS V14.01,2013-03-02 12:30:00,
2013-03-02 06:34:00,-0.5,-3.2,30.24,NNW,344,0.0,0.0,88,0.00,,SKC,0.00,VWS V14.01,2013-03-02 12:34:00,
2013-03-02 06:35:00,0.1,-2.1,30.24,NNW,344,0.0,0.0,90,0.00,,SKC,0.00,VWS V14.01,2013-03-02 12:35:00,
2013-03-02 06:39:00,-0.7,-3.4,30.24,NNW,344,0.0,0.0,88,0.00,,SKC,0.00,VWS V14.01,2013-03-02 12:39:00,
2013-03-02 06:40:00,0.8,-1.2,30.24,NNW,343,0.0,0.0,91,0.00,,SKC,0.00,VWS V14.01,2013-03-02 12:40:00,
2013-03-02 06:44:00,-0.5,-3.0,30.24,NNW,343,0.0,0.0,89,0.00,,SKC,0.00,VWS V14.01,2013-03-02 12:44:00,
2013-03-02 06:45:00,1.5,-0.5,30.24,NNW,343,0.0,0.0,91,0.00,,SKC,0.00,VWS V14.01,2013-03-02 12:45:00,
2013-03-02 06:49:00,-0.8,-3.3,30.23,NNW,343,0.0,0.0,89,0.00,,SKC,0.00,VWS V14.01,2013-03-02 12:49:00,
2013-03-02 06:50:00,2.2,0.2,30.24,NNW,344,0.0,0.0,91,0.00,,SKC,0.00,VWS V14.01,2013-03-02 12:50:00,
2013-03-02 06:54:00,-1.4,-4.3,30.23,NNW,343,0.0,0.0,87,0.00,,SKC,0.00,VWS V14.01,2013-03-02 12:54:00,
2013-03-02 06:55:00,3.4,1.6,30.24,NNW,344,0.0,0.0,92,0.00,,SKC,0.00,VWS V14.01,2013-03-02 12:55:00,
2013-03-02 06:59:00,-1.5,-4.2,30.23,NNW,344,0.0,0.0,88,0.00,,SKC,0.00,VWS V14.01,2013-03-02 12:59:00,
2013-03-02 07:00:00,4.5,2.7,30.24,ENE,62,0.0,1.0,92,0.00,,SKC,0.00,VWS V14.01,2013-03-02 13:00:00,
2013-03-02 07:04:00,-1.8,-4.5,30.23,NNW,343,0.0,0.0,88,0.00,,SKC,0.00,VWS V14.01,2013-03-02 13:04:00,
2013-03-02 07:05:00,5.5,3.7,30.24,WSW,241,0.0,0.0,92,0.00,,SKC,0.00,VWS V14.01,2013-03-02 13:05:00,
2013-03-02 07:09:00,-2.1,-5.0,30.23,NNW,343,0.0,0.0,87,0.00,,SKC,0.00,VWS V14.01,2013-03-02 13:09:00,
2013-03-02 07:10:00,6.5,4.7,30.24,WSW,241,0.0,0.0,92,0.00,,SKC,0.00,VWS V14.01,2013-03-02 13:10:00,
2013-03-02 07:14:00,-1.8,-4.5,30.23,NNW,343,0.0,0.0,88,0.00,,SKC,0.00,VWS V14.01,2013-03-02 13:14:00,
2013-03-02 07:15:00,7.3,5.5,30.24,WSW,242,0.0,0.0,92,0.00,,SKC,0.00,VWS V14.01,2013-03-02 13:15:00,
2013-03-02 07:19:00,-1.6,-4.3,30.24,NNW,343,0.0,0.0,88,0.00,,SKC,0.00,VWS V14.01,2013-03-02 13:19:00,
2013-03-02 07:20:00,8.3,6.2,30.24,NE,44,0.0,0.0,91,0.00,,SKC,0.00,VWS V14.01,2013-03-02 13:20:00,
2013-03-02 07:24:00,-1.2,-3.7,30.24,NNW,344,0.0,0.0,89,0.00,,SKC,0.00,VWS V14.01,2013-03-02 13:24:00,
2013-03-02 07:25:00,9.2,7.1,30.24,ENE,59,0.0,0.0,91,0.00,,SKC,0.00,VWS V14.01,2013-03-02 13:25:00,
2013-03-02 07:29:00,-0.9,-3.3,30.24,NNW,343,0.0,0.0,89,0.00,,SKC,0.00,VWS V14.01,2013-03-02 13:29:00,
2013-03-02 07:30:00,10.0,7.7,30.24,NNW,335,0.0,0.0,90,0.00,,SKC,0.00,VWS V14.01,2013-03-02 13:30:00,
2013-03-02 07:34:00,-0.4,-2.6,30.24,NNW,344,0.0,0.0,90,0.00,,SKC,0.00,VWS V14.01,2013-03-02 13:34:00,
2013-03-02 07:35:00,10.4,7.8,30.24,NNE,27,0.0,0.0,89,0.00,,SKC,0.00,VWS V14.01,2013-03-02 13:35:00,
2013-03-02 07:39:00,0.4,-1.6,30.24,NNW,343,0.0,0.0,91,0.00,,SKC,0.00,VWS V14.01,2013-03-02 13:39:00,
2013-03-02 07:40:00,10.9,8.1,30.24,NNE,33,1.0,5.0,88,0.00,,SKC,0.00,VWS V14.01,2013-03-02 13:40:00,
2013-03-02 07:44:00,1.2,-0.8,30.24,NNW,343,0.0,0.0,91,0.00,,SKC,0.00,VWS V14.01,2013-03-02 13:44:00,
2013-03-02 07:45:00,11.2,8.1,30.24,North,355,0.0,5.0,87,0.00,,SKC,0.00,VWS V14.01,2013-03-02 13:45:00,
2013-03-02 07:49:00,1.7,-0.3,30.24,NNW,343,0.0,0.0,91,0.00,,SKC,0.00,VWS V14.01,2013-03-02 13:49:00,
2013-03-02 07:50:00,11.5,8.1,30.24,NNW,328,1.0,4.0,86,0.00,,SKC,0.00,VWS V14.01,2013-03-02 13:50:00,
2013-03-02 07:54:00,2.7,0.9,30.24,NNW,344,0.0,0.0,92,0.00,,SKC,0.00,VWS V14.01,2013-03-02 13:54:00,
2013-03-02 07:55:00,12.3,8.9,30.24,ENE,66,2.0,2.0,86,0.00,,SKC,0.00,VWS V14.01,2013-03-02 13:55:00,
2013-03-02 07:59:00,3.9,2.1,30.24,NNW,344,0.0,0.0,92,0.00,,SKC,0.00,VWS V14.01,2013-03-02 13:59:00,
2013-03-02 08:00:00,12.9,8.7,30.23,WNW,294,2.0,4.0,83,0.00,,SKC,0.00,VWS V14.01,2013-03-02 14:00:00,
2013-03-02 08:04:00,5.0,3.2,30.24,ENE,62,0.0,0.0,92,0.00,,SKC,0.00,VWS V14.01,2013-03-02 14:04:00,
2013-03-02 08:05:00,13.4,8.9,30.23,NE,43,3.0,7.0,82,0.00,,SKC,0.00,VWS V14.01,2013-03-02 14:05:00,
2013-03-02 08:10:00,5.9,4.1,30.24,WSW,241,0.0,0.0,92,0.00,,SKC,0.00,VWS V14.01,2013-03-02 14:10:00,
2013-03-02 08:15:00,7.0,5.2,30.24,WSW,242,0.0,0.0,92,0.00,,SKC,0.00,VWS V14.01,2013-03-02 14:15:00,
2013-03-02 08:20:00,7.8,6.0,30.24,NW,323,0.0,0.0,92,0.00,,SKC,0.00,VWS V14.01,2013-03-02 14:20:00,
2013-03-02 08:25:00,8.7,6.6,30.24,NNE,27,0.0,0.0,91,0.00,,SKC,0.00,VWS V14.01,2013-03-02 14:25:00,
2013-03-02 08:30:00,9.6,7.5,30.24,NNE,23,0.0,0.0,91,0.00,,SKC,0.00,VWS V14.01,2013-03-02 14:30:00,
2013-03-02 08:35:00,10.2,7.9,30.24,NNW,335,0.0,0.0,90,0.00,,SKC,0.00,VWS V14.01,2013-03-02 14:35:00,
2013-03-02 08:40:00,10.7,8.1,30.24,NNW,330,2.0,5.0,89,0.00,,SKC,0.00,VWS V14.01,2013-03-02 14:40:00,
2013-03-02 08:45:00,11.0,8.1,30.24,ENE,67,1.0,2.0,88,0.00,,SKC,0.00,VWS V14.01,2013-03-02 14:45:00,
2013-03-02 08:50:00,11.3,7.9,30.24,NW,313,0.0,2.0,86,0.00,,SKC,0.00,VWS V14.01,2013-03-02 14:50:00,
2013-03-02 08:55:00,11.9,8.5,30.24,NNW,328,0.0,2.0,86,0.00,,SKC,0.00,VWS V14.01,2013-03-02 14:55:00,
2013-03-02 09:00:00,12.7,8.8,30.24,NW,304,1.0,4.0,84,0.00,,SKC,0.00,VWS V14.01,2013-03-02 15:00:00,
2013-03-02 09:05:00,13.2,9.0,30.23,WSW,249,1.0,3.0,83,0.00,,SKC,0.00,VWS V14.01,2013-03-02 15:05:00,
2013-03-02 09:10:00,13.9,9.4,30.23,West,273,0.0,3.0,82,0.00,,SKC,0.00,VWS V14.01,2013-03-02 15:10:00,
2013-03-02 09:15:00,14.5,9.7,30.23,West,265,3.0,3.0,81,0.00,,SKC,0.00,VWS V14.01,2013-03-02 15:15:00,
2013-03-02 09:20:00,14.9,9.6,30.23,North,10,0.0,4.0,79,0.00,,SKC,0.00,VWS V14.01,2013-03-02 15:20:00,
2013-03-02 09:25:00,15.3,9.7,30.23,West,265,2.0,7.0,78,0.00,,SKC,0.00,VWS V14.01,2013-03-02 15:25:00,
2013-03-02 09:30:00,15.7,10.1,30.23,NE,38,7.0,7.0,78,0.00,,SKC,0.00,VWS V14.01,2013-03-02 15:30:00,
2013-03-02 09:35:00,16.1,10.2,30.23,WSW,252,3.0,3.0,77,0.00,,SKC,0.00,VWS V14.01,2013-03-02 15:35:00,
2013-03-02 09:40:00,16.5,10.3,30.23,West,273,1.0,6.0,76,0.00,,SKC,0.00,VWS V14.01,2013-03-02 15:40:00,
2013-03-02 09:45:00,16.8,10.0,30.23,NNW,344,1.0,5.0,74,0.00,,SKC,0.00,VWS V14.01,2013-03-02 15:45:00,
2013-03-02 09:50:00,17.0,9.9,30.23,NNE,24,0.0,7.0,73,0.00,,SKC,0.00,VWS V14.01,2013-03-02 15:50:00,
2013-03-02 09:55:00,17.3,9.8,30.23,ENE,61,0.0,6.0,72,0.00,,SKC,0.00,VWS V14.01,2013-03-02 15:55:00,
2013-03-02 10:00:00,17.7,10.5,30.23,NE,44,1.0,3.0,73,0.00,,SKC,0.00,VWS V14.01,2013-03-02 16:00:00,
2013-03-02 10:05:00,18.1,10.0,30.22,SW,225,1.0,4.0,70,0.00,,SKC,0.00,VWS V14.01,2013-03-02 16:05:00,
2013-03-02 10:10:00,18.4,10.3,30.22,ENE,78,1.0,1.0,70,0.00,,SKC,0.00,VWS V14.01,2013-03-02 16:10:00,
2013-03-02 10:15:00,18.6,9.8,30.22,NE,34,3.0,7.0,68,0.00,,SKC,0.00,VWS V14.01,2013-03-02 16:15:00,
2013-03-02 10:20:00,18.5,9.4,30.22,ENE,69,2.0,6.0,67,0.00,,SKC,0.00,VWS V14.01,2013-03-02 16:20:00,
2013-03-02 10:25:00,19.0,10.5,30.22,ENE,63,0.0,2.0,69,0.00,,SKC,0.00,VWS V14.01,2013-03-02 16:25:00,
2013-03-02 10:30:00,19.5,10.0,30.22,East,95,2.0,4.0,66,0.00,,SKC,0.00,VWS V14.01,2013-03-02 16:30:00,
2013-03-02 10:35:00,19.8,10.3,30.22,NNE,28,4.0,5.0,66,0.00,,SKC,0.00,VWS V14.01,2013-03-02 16:35:00,
2013-03-02 10:40:00,19.9,10.1,30.22,ENE,61,2.0,3.0,65,0.00,,SKC,0.00,VWS V14.01,2013-03-02 16:40:00,
2013-03-02 10:45:00,20.1,10.6,30.22,SE,126,1.0,7.0,66,0.00,,SKC,0.00,VWS V14.01,2013-03-02 16:45:00,
2013-03-02 10:50:00,20.4,10.2,30.22,ENE,75,3.0,5.0,64,0.00,,SKC,0.00,VWS V14.01,2013-03-02 16:50:00,
2013-03-02 10:55:00,20.9,10.3,30.22,ENE,65,2.0,6.0,63,0.00,,SKC,0.00,VWS V14.01,2013-03-02 16:55:00,
2013-03-02 11:00:00,21.5,10.5,30.22,NNE,13,4.0,5.0,62,0.00,,SKC,0.00,VWS V14.01,2013-03-02 17:00:00,
2013-03-02 11:05:00,21.9,10.5,30.21,NW,309,1.0,5.0,61,0.00,,SKC,0.00,VWS V14.01,2013-03-02 17:05:00,
2013-03-02 11:10:00,26.3,9.3,30.19,East,86,2.0,5.0,48,0.00,,SKC,0.00,VWS V14.01,2013-03-02 17:10:00,
2013-03-02 11:11:00,22.7,10.9,30.21,NNW,338,1.0,3.0,60,0.00,,SKC,0.00,VWS V14.01,2013-03-02 17:11:00,
2013-03-02 11:15:00,25.9,9.4,30.18,West,271,2.0,7.0,49,0.00,,SKC,0.00,VWS V14.01,2013-03-02 17:15:00,
2013-03-02 11:16:00,23.2,11.0,30.21,NNE,22,4.0,6.0,59,0.00,,SKC,0.00,VWS V14.01,2013-03-02 17:16:00,
2013-03-02 11:20:00,26.2,10.1,30.18,West,273,6.0,8.0,50,0.00,,SKC,0.00,VWS V14.01,2013-03-02 17:20:00,
2013-03-02 11:21:00,23.2,11.0,30.20,WSW,256,3.0,4.0,59,0.00,,SKC,0.00,VWS V14.01,2013-03-02 17:21:00,
2013-03-02 11:25:00,26.8,10.2,30.18,WNW,286,0.0,6.0,49,0.00,,SKC,0.00,VWS V14.01,2013-03-02 17:25:00,
2013-03-02 11:26:00,23.9,10.5,30.20,ENE,73,3.0,3.0,56,0.00,,SKC,0.00,VWS V14.01,2013-03-02 17:26:00,
2013-03-02 11:30:00,26.6,8.6,30.18,NE,55,5.0,8.0,46,0.00,,SKC,0.00,VWS V14.01,2013-03-02 17:30:00,
2013-03-02 11:31:00,24.2,10.4,30.20,WNW,288,1.0,4.0,55,0.00,,SKC,0.00,VWS V14.01,2013-03-02 17:31:00,
2013-03-02 11:35:00,26.7,9.2,30.18,NW,325,1.0,7.0,47,0.00,,SKC,0.00,VWS V14.01,2013-03-02 17:35:00,
2013-03-02 11:36:00,24.9,10.6,30.20,ENE,61,7.0,7.0,54,0.00,,SKC,0.00,VWS V14.01,2013-03-02 17:36:00,
2013-03-02 11:40:00,27.3,9.3,30.18,ENE,63,1.0,3.0,46,0.00,,SKC,0.00,VWS V14.01,2013-03-02 17:40:00,
2013-03-02 11:41:00,24.8,11.3,30.20,NW,307,2.0,8.0,56,0.00,,SKC,0.00,VWS V14.01,2013-03-02 17:41:00,
2013-03-02 11:45:00,27.9,10.3,30.17,WNW,283,1.0,5.0,47,0.00,,SKC,0.00,VWS V14.01,2013-03-02 17:45:00,
2013-03-02 11:46:00,25.2,10.9,30.20,NNE,27,1.0,4.0,54,0.00,,SKC,0.00,VWS V14.01,2013-03-02 17:46:00,
2013-03-02 11:50:00,28.2,9.1,30.17,ENE,60,7.0,7.0,44,0.00,,SKC,0.00,VWS V14.01,2013-03-02 17:50:00,
2013-03-02 11:51:00,25.3,10.1,30.20,NE,34,3.0,6.0,52,0.00,,SKC,0.00,VWS V14.01,2013-03-02 17:51:00,
2013-03-02 11:55:00,27.8,8.7,30.17,WNW,286,4.0,7.0,44,0.00,,SKC,0.00,VWS V14.01,2013-03-02 17:55:00,
2013-03-02 11:56:00,25.4,10.2,30.20,ENE,68,2.0,3.0,52,0.00,,SKC,0.00,VWS V14.01,2013-03-02 17:56:00,
2013-03-02 12:00:00,27.9,8.3,30.17,WNW,303,1.0,4.0,43,0.00,,SKC,0.00,VWS V14.01,2013-03-02 18:00:00,
2013-03-02 12:01:00,25.9,10.7,30.20,NW,325,1.0,2.0,52,0.00,,SKC,0.00,VWS V14.01,2013-03-02 18:01:00,
2013-03-02 12:05:00,28.1,8.5,30.17,WSW,248,5.0,6.0,43,0.00,,SKC,0.00,VWS V14.01,2013-03-02 18:05:00,
2013-03-02 12:06:00,26.7,9.2,30.19,NE,44,1.0,5.0,47,0.00,,SKC,0.00,VWS V14.01,2013-03-02 18:06:00,
2013-03-02 12:10:00,28.2,10.6,30.17,WNW,295,2.0,5.0,47,0.00,,SKC,0.00,VWS V14.01,2013-03-02 18:10:00,
2013-03-02 12:11:00,26.4,9.4,30.19,ENE,72,5.0,5.0,48,0.00,,SKC,0.00,VWS V14.01,2013-03-02 18:11:00,
2013-03-02 12:15:00,28.1,8.5,30.17,ENE,66,2.0,3.0,43,0.00,,SKC,0.00,VWS V14.01,2013-03-02 18:15:00,
2013-03-02 12:16:00,26.0,9.5,30.19,NE,44,3.0,7.0,49,0.00,,SKC,0.00,VWS V14.01,2013-03-02 18:16:00,
2013-03-02 12:20:00,27.7,7.6,30.17,ENE,78,2.0,5.0,42,0.00,,SKC,0.00,VWS V14.01,2013-03-02 18:20:00,
2013-03-02 12:21:00,26.2,10.6,30.18,SSW,209,1.0,8.0,51,0.00,,SKC,0.00,VWS V14.01,2013-03-02 18:21:00,
2013-03-02 12:25:00,27.9,8.8,30.17,NE,46,0.0,5.0,44,0.00,,SKC,0.00,VWS V14.01,2013-03-02 18:25:00,
2013-03-02 12:26:00,26.7,11.0,30.18,NNW,327,2.0,6.0,51,0.00,,SKC,0.00,VWS V14.01,2013-03-02 18:26:00,
2013-03-02 12:30:00,28.3,8.7,30.16,WNW,299,0.0,5.0,43,0.00,,SKC,0.00,VWS V14.01,2013-03-02 18:30:00,
2013-03-02 12:31:00,26.8,9.3,30.18,East,89,2.0,7.0,47,0.00,,SKC,0.00,VWS V14.01,2013-03-02 18:31:00,
2013-03-02 12:35:00,28.4,9.3,30.16,North,350,1.0,8.0,44,0.00,,SKC,0.00,VWS V14.01,2013-03-02 18:35:00,
2013-03-02 12:36:00,26.6,9.6,30.18,WNW,283,2.0,7.0,48,0.00,,SKC,0.00,VWS V14.01,2013-03-02 18:36:00,
2013-03-02 12:40:00,28.1,9.0,30.16,West,277,1.0,7.0,44,0.00,,SKC,0.00,VWS V14.01,2013-03-02 18:40:00,
2013-03-02 12:41:00,27.1,9.1,30.18,North,11,0.0,3.0,46,0.00,,SKC,0.00,VWS V14.01,2013-03-02 18:41:00,
2013-03-02 12:45:00,28.0,8.4,30.16,WNW,298,1.0,6.0,43,0.00,,SKC,0.00,VWS V14.01,2013-03-02 18:45:00,
2013-03-02 12:46:00,27.7,9.6,30.18,NNE,21,1.0,5.0,46,0.00,,SKC,0.00,VWS V14.01,2013-03-02 18:46:00,
2013-03-02 12:50:00,28.4,8.2,30.16,NE,49,0.0,5.0,42,0.00,,SKC,0.00,VWS V14.01,2013-03-02 18:50:00,
2013-03-02 12:51:00,28.1,9.5,30.17,West,264,0.0,3.0,45,0.00,,SKC,0.00,VWS V14.01,2013-03-02 18:51:00,
2013-03-02 12:55:00,28.3,8.2,30.16,NE,38,3.0,7.0,42,0.00,,SKC,0.00,VWS V14.01,2013-03-02 18:55:00,
2013-03-02 12:56:00,27.9,8.8,30.17,NNE,17,4.0,7.0,44,0.00,,SKC,0.00,VWS V14.01,2013-03-02 18:56:00,
2013-03-02 13:00:00,28.4,8.8,30.15,WNW,298,3.0,5.0,43,0.00,,SKC,0.00,VWS V14.01,2013-03-02 19:00:00,
2013-03-02 13:01:00,27.8,8.7,30.17,WSW,254,2.0,4.0,44,0.00,,SKC,0.00,VWS V14.01,2013-03-02 19:01:00,
2013-03-02 13:05:00,28.7,9.1,30.15,WSW,244,1.0,4.0,43,0.00,,SKC,0.00,VWS V14.01,2013-03-02 19:05:00,
2013-03-02 13:06:00,28.1,9.0,30.17,ENE,64,2.0,6.0,44,0.00,,SKC,0.00,VWS V14.01,2013-03-02 19:06:00,
2013-03-02 13:10:00,28.8,9.6,30.15,NE,51,2.0,5.0,44,0.00,,SKC,0.00,VWS V14.01,2013-03-02 19:10:00,
2013-03-02 13:11:00,28.1,9.5,30.17,NNW,329,1.0,5.0,45,0.00,,SKC,0.00,VWS V14.01,2013-03-02 19:11:00,
2013-03-02 13:15:00,28.8,8.6,30.15,WNW,289,5.0,6.0,42,0.00,,SKC,0.00,VWS V14.01,2013-03-02 19:15:00,
2013-03-02 13:16:00,28.1,8.0,30.17,West,271,0.0,3.0,42,0.00,,SKC,0.00,VWS V14.01,2013-03-02 19:16:00,
2013-03-02 13:20:00,28.6,8.4,30.15,West,274,0.0,5.0,42,0.00,,SKC,0.00,VWS V14.01,2013-03-02 19:20:00,
2013-03-02 13:21:00,27.8,7.7,30.17,ENE,78,2.0,5.0,42,0.00,,SKC,0.00,VWS V14.01,2013-03-02 19:21:00,
2013-03-02 13:25:00,28.6,8.4,30.15,WNW,296,1.0,9.0,42,0.00,,SKC,0.00,VWS V14.01,2013-03-02 19:25:00,
2013-03-02 13:26:00,27.8,8.7,30.17,NNW,331,1.0,5.0,44,0.00,,SKC,0.00,VWS V14.01,2013-03-02 19:26:00,
2013-03-02 13:30:00,29.0,8.8,30.15,WNW,302,1.0,4.0,42,0.00,,SKC,0.00,VWS V14.01,2013-03-02 19:30:00,
2013-03-02 13:31:00,28.3,9.2,30.17,NE,39,2.0,3.0,44,0.00,,SKC,0.00,VWS V14.01,2013-03-02 19:31:00,
2013-03-02 13:35:00,29.0,8.8,30.15,WNW,283,1.0,3.0,42,0.00,,SKC,0.00,VWS V14.01,2013-03-02 19:35:00,
2013-03-02 13:36:00,28.4,9.3,30.16,NNE,20,3.0,8.0,44,0.00,,SKC,0.00,VWS V14.01,2013-03-02 19:36:00,
2013-03-02 13:40:00,29.4,9.2,30.15,North,351,2.0,4.0,42,0.00,,SKC,0.00,VWS V14.01,2013-03-02 19:40:00,
2013-03-02 13:41:00,28.1,8.5,30.16,WSW,248,1.0,7.0,43,0.00,,SKC,0.00,VWS V14.01,2013-03-02 19:41:00,
2013-03-02 13:45:00,29.3,9.1,30.15,West,280,0.0,5.0,42,0.00,,SKC,0.00,VWS V14.01,2013-03-02 19:45:00,
2013-03-02 13:46:00,28.0,8.4,30.16,WNW,283,1.0,6.0,43,0.00,,SKC,0.00,VWS V14.01,2013-03-02 19:46:00,
2013-03-02 13:50:00,29.3,8.5,30.15,WNW,299,1.0,5.0,41,0.00,,SKC,0.00,VWS V14.01,2013-03-02 19:50:00,
2013-03-02 13:51:00,28.3,8.7,30.16,West,281,1.0,5.0,43,0.00,,SKC,0.00,VWS V14.01,2013-03-02 19:51:00,
2013-03-02 13:55:00,29.2,8.4,30.15,NNW,327,1.0,5.0,41,0.00,,SKC,0.00,VWS V14.01,2013-03-02 19:55:00,
2013-03-02 13:56:00,28.3,8.2,30.16,NNW,338,4.0,4.0,42,0.00,,SKC,0.00,VWS V14.01,2013-03-02 19:56:00,
2013-03-02 14:00:00,29.0,7.7,30.15,WNW,294,3.0,5.0,40,0.00,,SKC,0.00,VWS V14.01,2013-03-02 20:00:00,
2013-03-02 14:01:00,28.4,8.8,30.15,WNW,298,2.0,5.0,43,0.00,,SKC,0.00,VWS V14.01,2013-03-02 20:01:00,
2013-03-02 14:05:00,28.8,8.1,30.15,WNW,294,1.0,5.0,41,0.00,,SKC,0.00,VWS V14.01,2013-03-02 20:05:00,
2013-03-02 14:06:00,28.7,9.6,30.15,NE,38,2.0,4.0,44,0.00,,SKC,0.00,VWS V14.01,2013-03-02 20:06:00,
2013-03-02 14:10:00,28.7,8.5,30.15,West,274,2.0,6.0,42,0.00,,SKC,0.00,VWS V14.01,2013-03-02 20:10:00,
2013-03-02 14:11:00,28.8,9.6,30.15,WSW,249,4.0,5.0,44,0.00,,SKC,0.00,VWS V14.01,2013-03-02 20:11:00,
2013-03-02 14:15:00,28.3,8.7,30.14,WSW,252,3.0,7.0,43,0.00,,SKC,0.00,VWS V14.01,2013-03-02 20:15:00,
2013-03-02 14:16:00,28.8,8.6,30.15,West,280,6.0,6.0,42,0.00,,SKC,0.00,VWS V14.01,2013-03-02 20:16:00,
2013-03-02 14:20:00,28.4,10.3,30.14,NNE,20,0.0,5.0,46,0.00,,SKC,0.00,VWS V14.01,2013-03-02 20:20:00,
2013-03-02 14:21:00,28.5,8.3,30.15,West,275,2.0,5.0,42,0.00,,SKC,0.00,VWS V14.01,2013-03-02 20:21:00,
2013-03-02 14:25:00,28.1,8.0,30.14,NE,40,2.0,4.0,42,0.00,,SKC,0.00,VWS V14.01,2013-03-02 20:25:00,
2013-03-02 14:26:00,28.6,7.9,30.15,West,260,3.0,9.0,41,0.00,,SKC,0.00,VWS V14.01,2013-03-02 20:26:00,
2013-03-02 14:30:00,28.0,7.9,30.14,WNW,284,3.0,5.0,42,0.00,,SKC,0.00,VWS V14.01,2013-03-02 20:30:00,
2013-03-02 14:31:00,29.0,9.3,30.15,WNW,294,1.0,4.0,43,0.00,,SKC,0.00,VWS V14.01,2013-03-02 20:31:00,
2013-03-02 14:35:00,27.9,8.8,30.14,North,355,1.0,4.0,44,0.00,,SKC,0.00,VWS V14.01,2013-03-02 20:35:00,
2013-03-02 14:36:00,29.0,8.8,30.15,WNW,287,1.0,3.0,42,0.00,,SKC,0.00,VWS V14.01,2013-03-02 20:36:00,
2013-03-02 14:40:00,27.7,8.6,30.14,East,85,2.0,5.0,44,0.00,,SKC,0.00,VWS V14.01,2013-03-02 20:40:00,
2013-03-02 14:41:00,29.3,9.1,30.15,NNE,13,2.0,4.0,42,0.00,,SKC,0.00,VWS V14.01,2013-03-02 20:41:00,
2013-03-02 14:45:00,27.2,8.2,30.14,ENE,78,1.0,5.0,44,0.00,,SKC,0.00,VWS V14.01,2013-03-02 20:45:00,
2013-03-02 14:46:00,29.3,8.5,30.15,WNW,296,2.0,5.0,41,0.00,,SKC,0.00,VWS V14.01,2013-03-02 20:46:00,
2013-03-02 14:50:00,26.9,8.4,30.14,West,272,0.0,3.0,45,0.00,,SKC,0.00,VWS V14.01,2013-03-02 20:50:00,
2013-03-02 14:51:00,29.2,8.4,30.15,WNW,296,1.0,5.0,41,0.00,,SKC,0.00,VWS V14.01,2013-03-02 20:51:00,
2013-03-02 14:55:00,27.2,7.7,30.14,ENE,63,1.0,3.0,43,0.00,,SKC,0.00,VWS V14.01,2013-03-02 20:55:00,
2013-03-02 14:56:00,29.3,8.5,30.15,West,276,2.0,5.0,41,0.00,,SKC,0.00,VWS V14.01,2013-03-02 20:56:00,
2013-03-02 15:00:00,27.4,9.8,30.14,NNE,17,1.0,2.0,47,0.00,,SKC,0.00,VWS V14.01,2013-03-02 21:00:00,
2013-03-02 15:01:00,29.1,8.4,30.15,NNW,329,2.0,5.0,41,0.00,,SKC,0.00,VWS V14.01,2013-03-02 21:01:00,
2013-03-02 15:05:00,27.3,8.8,30.14,East,84,1.0,2.0,45,0.00,,SKC,0.00,VWS V14.01,2013-03-02 21:05:00,
2013-03-02 15:07:00,28.8,7.5,30.15,NW,304,1.0,5.0,40,0.00,,SKC,0.00,VWS V14.01,2013-03-02 21:07:00,
2013-03-02 15:10:00,27.3,8.8,30.14,East,87,1.0,3.0,45,0.00,,SKC,0.00,VWS V14.01,2013-03-02 21:10:00,
2013-03-02 15:12:00,28.7,8.5,30.15,NW,319,1.0,6.0,42,0.00,,SKC,0.00,VWS V14.01,2013-03-02 21:12:00,
2013-03-02 15:15:00,27.0,9.0,30.14,NNW,333,0.0,4.0,46,0.00,,SKC,0.00,VWS V14.01,2013-03-02 21:15:00,
2013-03-02 15:17:00,28.3,8.2,30.14,SSW,211,2.0,7.0,42,0.00,,SKC,0.00,VWS V14.01,2013-03-02 21:17:00,
2013-03-02 15:20:00,27.0,9.0,30.14,NE,34,1.0,1.0,46,0.00,,SKC,0.00,VWS V14.01,2013-03-02 21:20:00,
2013-03-02 15:22:00,28.4,9.8,30.14,NNE,19,3.0,5.0,45,0.00,,SKC,0.00,VWS V14.01,2013-03-02 21:22:00,
2013-03-02 15:25:00,27.1,10.9,30.14,NNW,344,2.0,4.0,50,0.00,,SKC,0.00,VWS V14.01,2013-03-02 21:25:00,
2013-03-02 15:27:00,28.1,8.0,30.14,NE,50,3.0,4.0,42,0.00,,SKC,0.00,VWS V14.01,2013-03-02 21:27:00,
2013-03-02 15:30:00,26.9,9.9,30.14,West,271,4.0,4.0,48,0.00,,SKC,0.00,VWS V14.01,2013-03-02 21:30:00,
2013-03-02 15:32:00,28.0,7.9,30.14,WNW,290,2.0,5.0,42,0.00,,SKC,0.00,VWS V14.01,2013-03-02 21:32:00,
2013-03-02 15:35:00,27.1,10.5,30.14,West,263,1.0,5.0,49,0.00,,SKC,0.00,VWS V14.01,2013-03-02 21:35:00,
2013-03-02 15:37:00,27.9,8.8,30.14,WNW,287,1.0,4.0,44,0.00,,SKC,0.00,VWS V14.01,2013-03-02 21:37:00,
2013-03-02 15:40:00,27.0,11.3,30.14,North,5,1.0,5.0,51,0.00,,SKC,0.00,VWS V14.01,2013-03-02 21:40:00,
2013-03-02 15:42:00,27.7,8.6,30.14,ENE,63,2.0,5.0,44,0.00,,SKC,0.00,VWS V14.01,2013-03-02 21:42:00,
2013-03-02 15:45:00,26.7,9.2,30.15,NNE,24,0.0,4.0,47,0.00,,SKC,0.00,VWS V14.01,2013-03-02 21:45:00,
2013-03-02 15:47:00,27.3,8.3,30.14,ENE,78,2.0,5.0,44,0.00,,SKC,0.00,VWS V14.01,2013-03-02 21:47:00,
2013-03-02 15:50:00,26.8,9.8,30.15,West,279,0.0,1.0,48,0.00,,SKC,0.00,VWS V14.01,2013-03-02 21:50:00,
2013-03-02 15:52:00,26.9,8.4,30.14,West,271,0.0,3.0,45,0.00,,SKC,0.00,VWS V14.01,2013-03-02 21:52:00,
2013-03-02 15:55:00,26.5,9.9,30.15,NW,307,0.0,3.0,49,0.00,,SKC,0.00,VWS V14.01,2013-03-02 21:55:00,
2013-03-02 15:57:00,27.2,7.7,30.14,ENE,63,0.0,3.0,43,0.00,,SKC,0.00,VWS V14.01,2013-03-02 21:57:00,
2013-03-02 16:00:00,26.3,9.3,30.15,WNW,297,0.0,3.0,48,0.00,,SKC,0.00,VWS V14.01,2013-03-02 22:00:00,
2013-03-02 16:02:00,27.4,9.8,30.14,NNE,31,1.0,2.0,47,0.00,,SKC,0.00,VWS V14.01,2013-03-02 22:02:00,
2013-03-02 16:05:00,26.2,9.7,30.15,West,267,1.0,3.0,49,0.00,,SKC,0.00,VWS V14.01,2013-03-02 22:05:00,
2013-03-02 16:07:00,27.3,8.8,30.14,East,86,0.0,2.0,45,0.00,,SKC,0.00,VWS V14.01,2013-03-02 22:07:00,
2013-03-02 16:10:00,26.1,9.6,30.15,WNW,303,0.0,2.0,49,0.00,,SKC,0.00,VWS V14.01,2013-03-02 22:10:00,
2013-03-02 16:12:00,27.3,8.8,30.14,East,87,1.0,3.0,45,0.00,,SKC,0.00,VWS V14.01,2013-03-02 22:12:00,
2013-03-02 16:15:00,25.8,10.2,30.15,WSW,256,0.0,2.0,51,0.00,,SKC,0.00,VWS V14.01,2013-03-02 22:15:00,
2013-03-02 16:17:00,27.0,9.0,30.14,NNW,333,0.0,4.0,46,0.00,,SKC,0.00,VWS V14.01,2013-03-02 22:17:00,
2013-03-02 16:20:00,25.4,8.9,30.15,West,268,0.0,3.0,49,0.00,,SKC,0.00,VWS V14.01,2013-03-02 22:20:00,
2013-03-02 16:22:00,27.0,9.0,30.14,NNE,18,1.0,1.0,46,0.00,,SKC,0.00,VWS V14.01,2013-03-02 22:22:00,
2013-03-02 16:25:00,25.0,10.3,30.15,West,278,2.0,2.0,53,0.00,,SKC,0.00,VWS V14.01,2013-03-02 22:25:00,
2013-03-02 16:27:00,27.1,10.9,30.14,NNE,12,3.0,4.0,50,0.00,,SKC,0.00,VWS V14.01,2013-03-02 22:27:00,
2013-03-02 16:30:00,24.6,9.1,30.15,WNW,282,0.0,2.0,51,0.00,,SKC,0.00,VWS V14.01,2013-03-02 22:30:00,
2013-03-02 16:32:00,26.9,9.9,30.14,West,277,4.0,4.0,48,0.00,,SKC,0.00,VWS V14.01,2013-03-02 22:32:00,
2013-03-02 16:35:00,24.3,9.6,30.15,West,272,1.0,4.0,53,0.00,,SKC,0.00,VWS V14.01,2013-03-02 22:35:00,
2013-03-02 16:38:00,27.2,11.0,30.14,WSW,238,4.0,5.0,50,0.00,,SKC,0.00,VWS V14.01,2013-03-02 22:38:00,
2013-03-02 16:40:00,23.9,9.3,30.15,NW,326,0.0,1.0,53,0.00,,SKC,0.00,VWS V14.01,2013-03-02 22:40:00,
2013-03-02 16:43:00,27.0,10.4,30.14,NE,40,2.0,2.0,49,0.00,,SKC,0.00,VWS V14.01,2013-03-02 22:43:00,
2013-03-02 16:45:00,23.4,9.6,30.15,NW,326,0.0,0.0,55,0.00,,SKC,0.00,VWS V14.01,2013-03-02 22:45:00,
2013-03-02 16:48:00,26.7,9.2,30.15,WNW,302,0.0,0.0,47,0.00,,SKC,0.00,VWS V14.01,2013-03-02 22:48:00,
2013-03-02 16:50:00,23.1,9.8,30.15,West,276,0.0,2.0,56,0.00,,SKC,0.00,VWS V14.01,2013-03-02 22:50:00,
2013-03-02 16:53:00,26.8,10.2,30.15,West,279,0.0,0.0,49,0.00,,SKC,0.00,VWS V14.01,2013-03-02 22:53:00,
2013-03-02 16:55:00,22.6,9.7,30.15,West,275,0.0,1.0,57,0.00,,SKC,0.00,VWS V14.01,2013-03-02 22:55:00,
2013-03-02 16:58:00,26.5,9.9,30.15,NE,42,1.0,1.0,49,0.00,,SKC,0.00,VWS V14.01,2013-03-02 22:58:00,
2013-03-02 17:00:00,22.1,9.6,30.15,West,276,0.0,0.0,58,0.00,,SKC,0.00,VWS V14.01,2013-03-02 23:00:00,
2013-03-02 17:03:00,26.3,9.3,30.15,WNW,298,0.0,1.0,48,0.00,,SKC,0.00,VWS V14.01,2013-03-02 23:03:00,
2013-03-02 17:05:00,21.7,9.2,30.15,WNW,290,0.0,1.0,58,0.00,,SKC,0.00,VWS V14.01,2013-03-02 23:05:00,
2013-03-02 17:08:00,26.2,10.6,30.15,WNW,290,0.0,2.0,51,0.00,,SKC,0.00,VWS V14.01,2013-03-02 23:08:00,
2013-03-02 17:10:00,21.3,9.2,30.15,WNW,289,0.0,1.0,59,0.00,,SKC,0.00,VWS V14.01,2013-03-02 23:10:00,
2013-03-02 17:13:00,26.1,10.0,30.15,NNW,336,0.0,2.0,50,0.00,,SKC,0.00,VWS V14.01,2013-03-02 23:13:00,
2013-03-02 17:15:00,20.9,8.8,30.15,WNW,289,0.0,0.0,59,0.00,,SKC,0.00,VWS V14.01,2013-03-02 23:15:00,
2013-03-02 17:18:00,25.7,10.1,30.15,West,265,1.0,3.0,51,0.00,,SKC,0.00,VWS V14.01,2013-03-02 23:18:00,
2013-03-02 17:20:00,20.4,8.7,30.15,WNW,290,0.0,0.0,60,0.00,,SKC,0.00,VWS V14.01,2013-03-02 23:20:00,
2013-03-02 17:23:00,25.3,9.3,30.15,West,276,1.0,1.0,50,0.00,,SKC,0.00,VWS V14.01,2013-03-02 23:23:00,
2013-03-02 17:25:00,20.1,8.5,30.15,WNW,289,0.0,0.0,60,0.00,,SKC,0.00,VWS V14.01,2013-03-02 23:25:00,
2013-03-02 17:28:00,24.9,9.4,30.15,West,280,1.0,2.0,51,0.00,,SKC,0.00,VWS V14.01,2013-03-02 23:28:00,
2013-03-02 17:30:00,19.7,8.4,30.15,WNW,289,0.0,0.0,61,0.00,,SKC,0.00,VWS V14.01,2013-03-02 23:30:00,
2013-03-02 17:33:00,24.6,9.1,30.15,WNW,282,0.0,1.0,51,0.00,,SKC,0.00,VWS V14.01,2013-03-02 23:33:00,
2013-03-02 17:35:00,19.4,8.5,30.15,WNW,289,0.0,0.0,62,0.00,,SKC,0.00,VWS V14.01,2013-03-02 23:35:00,
2013-03-02 17:38:00,24.2,9.6,30.15,NW,326,0.0,1.0,53,0.00,,SKC,0.00,VWS V14.01,2013-03-02 23:38:00,
2013-03-02 17:40:00,19.1,8.2,30.15,WNW,289,0.0,0.0,62,0.00,,SKC,0.00,VWS V14.01,2013-03-02 23:40:00,
2013-03-02 17:43:00,23.8,9.2,30.15,NW,325,0.0,0.0,53,0.00,,SKC,0.00,VWS V14.01,2013-03-02 23:43:00,
2013-03-02 17:45:00,18.7,8.2,30.15,WNW,289,0.0,0.0,63,0.00,,SKC,0.00,VWS V14.01,2013-03-02 23:45:00,
2013-03-02 17:48:00,23.4,9.6,30.15,NW,326,0.0,0.0,55,0.00,,SKC,0.00,VWS V14.01,2013-03-02 23:48:00,
2013-03-02 17:50:00,18.2,7.7,30.15,WNW,289,0.0,0.0,63,0.00,,SKC,0.00,VWS V14.01,2013-03-02 23:50:00,
2013-03-02 17:53:00,22.9,9.6,30.15,West,276,1.0,1.0,56,0.00,,SKC,0.00,VWS V14.01,2013-03-02 23:53:00,
2013-03-02 17:55:00,17.9,7.4,30.15,WNW,289,0.0,0.0,63,0.00,,SKC,0.00,VWS V14.01,2013-03-02 23:55:00,
2013-03-02 17:58:00,22.5,9.6,30.15,West,276,0.0,0.0,57,0.00,,SKC,0.00,VWS V14.01,2013-03-02 23:58:00,
2013-03-02 18:00:00,17.9,7.4,30.15,WNW,299,0.0,1.0,63,0.00,,SKC,0.00,VWS V14.01,2013-03-03 00:00:00,
2013-03-02 18:03:00,22.0,9.5,30.15,West,276,0.0,0.0,58,0.00,,SKC,0.00,VWS V14.01,2013-03-03 00:03:00,
2013-03-02 18:05:00,18.1,8.0,30.15,ENE,61,0.0,2.0,64,0.00,,SKC,0.00,VWS V14.01,2013-03-03 00:05:00,
2013-03-02 18:08:00,21.6,9.1,30.15,WNW,290,0.0,0.0,58,0.00,,SKC,0.00,VWS V14.01,2013-03-03 00:08:00,
2013-03-02 18:10:00,18.0,7.9,30.15,ENE,60,0.0,1.0,64,0.00,,SKC,0.00,VWS V14.01,2013-03-03 00:10:00,
2013-03-02 18:13:00,21.2,9.1,30.15,WNW,289,0.0,0.0,59,0.00,,SKC,0.00,VWS V14.01,2013-03-03 00:13:00,
2013-03-02 18:15:00,17.8,7.7,30.15,ENE,61,0.0,0.0,64,0.00,,SKC,0.00,VWS V14.01,2013-03-03 00:15:00,
2013-03-02 18:18:00,20.8,9.1,30.15,WNW,289,0.0,0.0,60,0.00,,SKC,0.00,VWS V14.01,2013-03-03 00:18:00,
2013-03-02 18:20:00,17.6,7.8,30.15,ENE,61,0.0,1.0,65,0.00,,SKC,0.00,VWS V14.01,2013-03-03 00:20:00,
2013-03-02 18:23:00,20.3,8.6,30.15,WNW,290,0.0,0.0,60,0.00,,SKC,0.00,VWS V14.01,2013-03-03 00:23:00,
2013-03-02 18:25:00,17.7,8.3,30.15,NNE,32,1.0,2.0,66,0.00,,SKC,0.00,VWS V14.01,2013-03-03 00:25:00,
2013-03-02 18:28:00,20.0,8.4,30.15,WNW,289,0.0,0.0,60,0.00,,SKC,0.00,VWS V14.01,2013-03-03 00:28:00,
2013-03-02 18:30:00,17.7,8.6,30.15,NE,39,0.0,1.0,67,0.00,,SKC,0.00,VWS V14.01,2013-03-03 00:30:00,
2013-03-02 18:33:00,19.6,8.4,30.15,WNW,290,0.0,0.0,61,0.00,,SKC,0.00,VWS V14.01,2013-03-03 00:33:00,
2013-03-02 18:35:00,17.5,8.4,30.15,East,90,0.0,1.0,67,0.00,,SKC,0.00,VWS V14.01,2013-03-03 00:35:00,
2013-03-02 18:38:00,19.3,8.4,30.15,WNW,289,0.0,0.0,62,0.00,,SKC,0.00,VWS V14.01,2013-03-03 00:38:00,
2013-03-02 18:40:00,17.3,8.6,30.15,North,360,0.0,2.0,68,0.00,,SKC,0.00,VWS V14.01,2013-03-03 00:40:00,
2013-03-02 18:43:00,18.9,8.1,30.15,WNW,289,0.0,0.0,62,0.00,,SKC,0.00,VWS V14.01,2013-03-03 00:43:00,
2013-03-02 18:45:00,17.0,8.3,30.15,North,360,0.0,1.0,68,0.00,,SKC,0.00,VWS V14.01,2013-03-03 00:45:00,
2013-03-02 18:48:00,18.6,8.1,30.15,WNW,290,0.0,0.0,63,0.00,,SKC,0.00,VWS V14.01,2013-03-03 00:48:00,
2013-03-02 18:50:00,16.8,8.1,30.15,NE,51,0.0,1.0,68,0.00,,SKC,0.00,VWS V14.01,2013-03-03 00:50:00,
2013-03-02 18:53:00,18.1,7.6,30.15,WNW,290,0.0,0.0,63,0.00,,SKC,0.00,VWS V14.01,2013-03-03 00:53:00,
2013-03-02 18:55:00,16.7,8.0,30.15,NE,51,0.0,1.0,68,0.00,,SKC,0.00,VWS V14.01,2013-03-03 00:55:00,
2013-03-02 18:58:00,17.9,7.4,30.15,WNW,289,0.0,0.0,63,0.00,,SKC,0.00,VWS V14.01,2013-03-03 00:58:00,
2013-03-02 19:00:00,16.7,8.3,30.15,NNW,335,1.0,4.0,69,0.00,,SKC,0.00,VWS V14.01,2013-03-03 01:00:00,
2013-03-02 19:03:00,18.0,7.5,30.15,North,360,1.0,1.0,63,0.00,,SKC,0.00,VWS V14.01,2013-03-03 01:03:00,
2013-03-02 19:05:00,16.6,8.2,30.15,West,261,0.0,1.0,69,0.00,,SKC,0.00,VWS V14.01,2013-03-03 01:05:00,
2013-03-02 19:08:00,18.1,8.0,30.15,ENE,61,0.0,0.0,64,0.00,,SKC,0.00,VWS V14.01,2013-03-03 01:08:00,
2013-03-02 19:10:00,16.5,8.1,30.15,NNE,15,0.0,3.0,69,0.00,,SKC,0.00,VWS V14.01,2013-03-03 01:10:00,
2013-03-02 19:13:00,18.0,7.9,30.15,ENE,61,0.0,0.0,64,0.00,,SKC,0.00,VWS V14.01,2013-03-03 01:13:00,
2013-03-02 19:15:00,16.4,8.3,30.15,NNE,15,0.0,1.0,70,0.00,,SKC,0.00,VWS V14.01,2013-03-03 01:15:00,
2013-03-02 19:18:00,17.7,7.6,30.15,ENE,60,0.0,0.0,64,0.00,,SKC,0.00,VWS V14.01,2013-03-03 01:18:00,
2013-03-02 19:20:00,16.3,7.9,30.15,NNE,32,0.0,1.0,69,0.00,,SKC,0.00,VWS V14.01,2013-03-03 01:20:00,
2013-03-02 19:23:00,17.6,7.8,30.15,ENE,61,0.0,1.0,65,0.00,,SKC,0.00,VWS V14.01,2013-03-03 01:23:00,
2013-03-02 19:25:00,16.3,8.2,30.15,NNW,344,1.0,1.0,70,0.00,,SKC,0.00,VWS V14.01,2013-03-03 01:25:00,
2013-03-02 19:28:00,17.6,8.2,30.15,NE,39,0.0,1.0,66,0.00,,SKC,0.00,VWS V14.01,2013-03-03 01:28:00,
2013-03-02 19:30:00,16.1,8.1,30.15,NNW,344,0.0,1.0,70,0.00,,SKC,0.00,VWS V14.01,2013-03-03 01:30:00,
2013-03-02 19:33:00,17.6,8.5,30.15,North,360,0.0,1.0,67,0.00,,SKC,0.00,VWS V14.01,2013-03-03 01:33:00,
2013-03-02 19:35:00,15.9,8.2,30.15,NNW,343,0.0,0.0,71,0.00,,SKC,0.00,VWS V14.01,2013-03-03 01:35:00,
2013-03-02 19:38:00,17.4,8.3,30.15,North,360,0.0,2.0,67,0.00,,SKC,0.00,VWS V14.01,2013-03-03 01:38:00,
2013-03-02 19:40:00,15.8,8.1,30.15,NNW,343,0.0,0.0,71,0.00,,SKC,0.00,VWS V14.01,2013-03-03 01:40:00,
2013-03-02 19:43:00,17.2,8.5,30.15,North,360,0.0,0.0,68,0.00,,SKC,0.00,VWS V14.01,2013-03-03 01:43:00,
2013-03-02 19:45:00,15.8,8.1,30.16,NE,35,0.0,1.0,71,0.00,,SKC,0.00,VWS V14.01,2013-03-03 01:45:00,
2013-03-02 19:48:00,16.9,8.2,30.15,North,355,0.0,0.0,68,0.00,,SKC,0.00,VWS V14.01,2013-03-03 01:48:00,
2013-03-02 19:50:00,15.6,7.9,30.16,NE,34,0.0,1.0,71,0.00,,SKC,0.00,VWS V14.01,2013-03-03 01:50:00,
2013-03-02 19:53:00,16.8,8.1,30.15,NE,51,0.0,1.0,68,0.00,,SKC,0.00,VWS V14.01,2013-03-03 01:53:00,
2013-03-02 19:55:00,15.5,8.1,30.16,NE,44,0.0,1.0,72,0.00,,SKC,0.00,VWS V14.01,2013-03-03 01:55:00,
2013-03-02 19:58:00,16.7,8.3,30.15,NE,42,0.0,1.0,69,0.00,,SKC,0.00,VWS V14.01,2013-03-03 01:58:00,
2013-03-02 20:00:00,15.3,7.9,30.16,ENE,64,0.0,0.0,72,0.00,,SKC,0.00,VWS V14.01,2013-03-03 02:00:00,
2013-03-02 20:03:00,16.7,8.3,30.15,NNW,335,0.0,1.0,69,0.00,,SKC,0.00,VWS V14.01,2013-03-03 02:03:00,
2013-03-02 20:05:00,15.0,7.6,30.16,ENE,63,0.0,0.0,72,0.00,,SKC,0.00,VWS V14.01,2013-03-03 02:05:00,
2013-03-02 20:09:00,16.6,8.2,30.15,West,261,0.0,0.0,69,0.00,,SKC,0.00,VWS V14.01,2013-03-03 02:09:00,
2013-03-02 20:10:00,14.8,7.7,30.16,ENE,63,0.0,0.0,73,0.00,,SKC,0.00,VWS V14.01,2013-03-03 02:10:00,
2013-03-02 20:14:00,16.5,8.1,30.15,NNE,15,0.0,0.0,69,0.00,,SKC,0.00,VWS V14.01,2013-03-03 02:14:00,
2013-03-02 20:15:00,14.6,7.5,30.16,ENE,63,0.0,0.0,73,0.00,,SKC,0.00,VWS V14.01,2013-03-03 02:15:00,
2013-03-02 20:19:00,16.3,8.2,30.15,NNE,15,0.0,1.0,70,0.00,,SKC,0.00,VWS V14.01,2013-03-03 02:19:00,
2013-03-02 20:20:00,14.5,7.7,30.16,ENE,63,0.0,0.0,74,0.00,,SKC,0.00,VWS V14.01,2013-03-03 02:20:00,
2013-03-02 20:24:00,16.3,7.9,30.15,NNE,32,0.0,1.0,69,0.00,,SKC,0.00,VWS V14.01,2013-03-03 02:24:00,
2013-03-02 20:25:00,14.4,7.6,30.16,ENE,63,0.0,0.0,74,0.00,,SKC,0.00,VWS V14.01,2013-03-03 02:25:00,
2013-03-02 20:29:00,16.2,8.1,30.15,NNW,343,0.0,1.0,70,0.00,,SKC,0.00,VWS V14.01,2013-03-03 02:29:00,
2013-03-02 20:30:00,14.3,7.6,30.16,ENE,63,0.0,0.0,74,0.00,,SKC,0.00,VWS V14.01,2013-03-03 02:30:00,
2013-03-02 20:34:00,16.0,8.0,30.15,NNW,344,0.0,0.0,70,0.00,,SKC,0.00,VWS V14.01,2013-03-03 02:34:00,
2013-03-02 20:35:00,14.3,7.6,30.16,ENE,63,0.0,0.0,74,0.00,,SKC,0.00,VWS V14.01,2013-03-03 02:35:00,
2013-03-02 20:39:00,15.9,8.2,30.15,NNW,343,0.0,0.0,71,0.00,,SKC,0.00,VWS V14.01,2013-03-03 02:39:00,
2013-03-02 20:40:00,14.3,7.8,30.16,ENE,63,0.0,0.0,75,0.00,,SKC,0.00,VWS V14.01,2013-03-03 02:40:00,
2013-03-02 20:44:00,15.8,8.1,30.15,NE,36,0.0,1.0,71,0.00,,SKC,0.00,VWS V14.01,2013-03-03 02:44:00,
2013-03-02 20:45:00,14.3,8.1,30.15,ENE,63,0.0,0.0,76,0.00,,SKC,0.00,VWS V14.01,2013-03-03 02:45:00,
2013-03-02 20:49:00,15.7,8.0,30.16,NE,35,0.0,1.0,71,0.00,,SKC,0.00,VWS V14.01,2013-03-03 02:49:00,
2013-03-02 20:50:00,14.2,7.7,30.15,ENE,63,0.0,0.0,75,0.00,,SKC,0.00,VWS V14.01,2013-03-03 02:50:00,
2013-03-02 20:54:00,15.6,7.9,30.16,NE,35,0.0,1.0,71,0.00,,SKC,0.00,VWS V14.01,2013-03-03 02:54:00,
2013-03-02 20:55:00,14.1,7.7,30.15,ENE,63,0.0,0.0,75,0.00,,SKC,0.00,VWS V14.01,2013-03-03 02:55:00,
2013-03-02 20:59:00,15.4,7.7,30.16,NE,44,0.0,0.0,71,0.00,,SKC,0.00,VWS V14.01,2013-03-03 02:59:00,
2013-03-02 21:00:00,13.7,7.3,30.15,ENE,63,0.0,0.0,75,0.00,,SKC,0.00,VWS V14.01,2013-03-03 03:00:00,
2013-03-02 21:04:00,15.2,7.8,30.16,ENE,64,0.0,0.0,72,0.00,,SKC,0.00,VWS V14.01,2013-03-03 03:04:00,
2013-03-02 21:05:00,13.3,7.2,30.15,ENE,63,0.0,0.0,76,0.00,,SKC,0.00,VWS V14.01,2013-03-03 03:05:00,
2013-03-02 21:09:00,14.9,7.5,30.16,ENE,63,0.0,0.0,72,0.00,,SKC,0.00,VWS V14.01,2013-03-03 03:09:00,
2013-03-02 21:10:00,12.9,6.8,30.15,ENE,63,0.0,0.0,76,0.00,,SKC,0.00,VWS V14.01,2013-03-03 03:10:00,
2013-03-02 21:14:00,14.7,7.6,30.16,ENE,63,0.0,0.0,73,0.00,,SKC,0.00,VWS V14.01,2013-03-03 03:14:00,
2013-03-02 21:15:00,12.4,6.6,30.14,ENE,63,0.0,0.0,77,0.00,,SKC,0.00,VWS V14.01,2013-03-03 03:15:00,
2013-03-02 21:19:00,14.6,7.5,30.16,ENE,63,0.0,0.0,73,0.00,,SKC,0.00,VWS V14.01,2013-03-03 03:19:00,
2013-03-02 21:20:00,11.9,6.1,30.14,ENE,63,0.0,0.0,77,0.00,,SKC,0.00,VWS V14.01,2013-03-03 03:20:00,
2013-03-02 21:24:00,14.5,7.7,30.16,ENE,63,0.0,0.0,74,0.00,,SKC,0.00,VWS V14.01,2013-03-03 03:24:00,
2013-03-02 21:25:00,11.4,5.9,30.14,ENE,63,0.0,0.0,78,0.00,,SKC,0.00,VWS V14.01,2013-03-03 03:25:00,
2013-03-02 21:29:00,14.4,7.6,30.16,ENE,63,0.0,0.0,74,0.00,,SKC,0.00,VWS V14.01,2013-03-03 03:29:00,
2013-03-02 21:30:00,11.1,5.9,30.14,ENE,63,0.0,0.0,79,0.00,,SKC,0.00,VWS V14.01,2013-03-03 03:30:00,
2013-03-02 21:34:00,14.3,7.6,30.16,ENE,63,0.0,0.0,74,0.00,,SKC,0.00,VWS V14.01,2013-03-03 03:34:00,
2013-03-02 21:35:00,10.7,5.5,30.14,ENE,63,0.0,0.0,79,0.00,,SKC,0.00,VWS V14.01,2013-03-03 03:35:00,
2013-03-02 21:39:00,14.3,7.8,30.16,ENE,63,0.0,0.0,75,0.00,,SKC,0.00,VWS V14.01,2013-03-03 03:39:00,
2013-03-02 21:40:00,10.2,5.3,30.14,ENE,63,0.0,0.0,80,0.00,,SKC,0.00,VWS V14.01,2013-03-03 03:40:00,
2013-03-02 21:44:00,14.3,7.8,30.16,ENE,63,0.0,0.0,75,0.00,,SKC,0.00,VWS V14.01,2013-03-03 03:44:00,
2013-03-02 21:45:00,10.0,5.3,30.13,ENE,63,0.0,0.0,81,0.00,,SKC,0.00,VWS V14.01,2013-03-03 03:45:00,
2013-03-02 21:49:00,14.2,8.0,30.15,ENE,63,0.0,0.0,76,0.00,,SKC,0.00,VWS V14.01,2013-03-03 03:49:00,
2013-03-02 21:50:00,9.7,5.3,30.13,ENE,63,0.0,0.0,82,0.00,,SKC,0.00,VWS V14.01,2013-03-03 03:50:00,
2013-03-02 21:54:00,14.2,7.7,30.15,ENE,63,0.0,0.0,75,0.00,,SKC,0.00,VWS V14.01,2013-03-03 03:54:00,
2013-03-02 21:55:00,9.4,5.0,30.13,ENE,63,0.0,0.0,82,0.00,,SKC,0.00,VWS V14.01,2013-03-03 03:55:00,
2013-03-02 21:59:00,14.0,7.6,30.15,ENE,63,0.0,0.0,75,0.00,,SKC,0.00,VWS V14.01,2013-03-03 03:59:00,
2013-03-02 22:00:00,9.1,5.0,30.14,ENE,63,0.0,0.0,83,0.00,,SKC,0.00,VWS V14.01,2013-03-03 04:00:00,
2013-03-02 22:04:00,13.6,7.5,30.15,ENE,63,0.0,0.0,76,0.00,,SKC,0.00,VWS V14.01,2013-03-03 04:04:00,
2013-03-02 22:05:00,8.8,4.4,30.14,ENE,63,0.0,0.0,82,0.00,,SKC,0.00,VWS V14.01,2013-03-03 04:05:00,
2013-03-02 22:09:00,13.2,7.1,30.15,ENE,63,0.0,0.0,76,0.00,,SKC,0.00,VWS V14.01,2013-03-03 04:09:00,
2013-03-02 22:10:00,8.5,4.4,30.14,ENE,63,0.0,0.0,83,0.00,,SKC,0.00,VWS V14.01,2013-03-03 04:10:00,
2013-03-02 22:14:00,12.7,6.6,30.15,ENE,63,0.0,0.0,76,0.00,,SKC,0.00,VWS V14.01,2013-03-03 04:14:00,
2013-03-02 22:15:00,8.3,4.2,30.14,ENE,63,0.0,0.0,83,0.00,,SKC,0.00,VWS V14.01,2013-03-03 04:15:00,
2013-03-02 22:19:00,12.2,6.4,30.14,ENE,63,0.0,0.0,77,0.00,,SKC,0.00,VWS V14.01,2013-03-03 04:19:00,
2013-03-02 22:20:00,7.9,3.8,30.14,ENE,63,0.0,0.0,83,0.00,,SKC,0.00,VWS V14.01,2013-03-03 04:20:00,
2013-03-02 22:24:00,11.7,6.2,30.14,ENE,63,0.0,0.0,78,0.00,,SKC,0.00,VWS V14.01,2013-03-03 04:24:00,
2013-03-02 22:25:00,7.5,3.7,30.14,ENE,63,0.0,0.0,84,0.00,,SKC,0.00,VWS V14.01,2013-03-03 04:25:00,
2013-03-02 22:29:00,11.3,6.1,30.14,ENE,63,0.0,0.0,79,0.00,,SKC,0.00,VWS V14.01,2013-03-03 04:29:00,
2013-03-02 22:30:00,7.2,3.4,30.13,ENE,63,0.0,0.0,84,0.00,,SKC,0.00,VWS V14.01,2013-03-03 04:30:00,
2013-03-02 22:34:00,10.9,5.7,30.14,ENE,63,0.0,0.0,79,0.00,,SKC,0.00,VWS V14.01,2013-03-03 04:34:00,
2013-03-02 22:35:00,6.9,3.3,30.13,ENE,63,0.0,0.0,85,0.00,,SKC,0.00,VWS V14.01,2013-03-03 04:35:00,
2013-03-02 22:39:00,10.4,5.5,30.14,ENE,63,0.0,0.0,80,0.00,,SKC,0.00,VWS V14.01,2013-03-03 04:39:00,
2013-03-02 22:40:00,6.6,3.1,30.13,ENE,63,0.0,0.0,85,0.00,,SKC,0.00,VWS V14.01,2013-03-03 04:40:00,
2013-03-02 22:44:00,10.1,5.4,30.14,ENE,63,0.0,0.0,81,0.00,,SKC,0.00,VWS V14.01,2013-03-03 04:44:00,
2013-03-02 22:45:00,6.6,3.3,30.13,ENE,63,0.0,0.0,86,0.00,,SKC,0.00,VWS V14.01,2013-03-03 04:45:00,
2013-03-02 22:49:00,9.9,5.5,30.13,ENE,63,0.0,0.0,82,0.00,,SKC,0.00,VWS V14.01,2013-03-03 04:49:00,
2013-03-02 22:50:00,6.4,3.1,30.13,ENE,63,0.0,0.0,86,0.00,,SKC,0.00,VWS V14.01,2013-03-03 04:50:00,
2013-03-02 22:55:00,9.6,5.2,30.13,ENE,63,0.0,0.0,82,0.00,,SKC,0.00,VWS V14.01,2013-03-03 04:55:00,
2013-03-02 23:00:00,9.2,4.8,30.13,ENE,63,0.0,0.0,82,0.00,,SKC,0.00,VWS V14.01,2013-03-03 05:00:00,
2013-03-02 23:05:00,8.9,4.5,30.14,ENE,63,0.0,0.0,82,0.00,,SKC,0.00,VWS V14.01,2013-03-03 05:05:00,
2013-03-02 23:10:00,8.6,4.5,30.14,ENE,63,0.0,0.0,83,0.00,,SKC,0.00,VWS V14.01,2013-03-03 05:10:00,
2013-03-02 23:15:00,8.4,4.3,30.14,ENE,63,0.0,0.0,83,0.00,,SKC,0.00,VWS V14.01,2013-03-03 05:15:00,
2013-03-02 23:20:00,8.0,3.9,30.14,ENE,63,0.0,0.0,83,0.00,,SKC,0.00,VWS V14.01,2013-03-03 05:20:00,
2013-03-02 23:25:00,7.7,3.6,30.14,ENE,63,0.0,0.0,83,0.00,,SKC,0.00,VWS V14.01,2013-03-03 05:25:00,
2013-03-02 23:30:00,7.3,3.5,30.14,ENE,63,0.0,0.0,84,0.00,,SKC,0.00,VWS V14.01,2013-03-03 05:30:00,
2013-03-02 23:35:00,7.0,3.2,30.13,ENE,63,0.0,0.0,84,0.00,,SKC,0.00,VWS V14.01,2013-03-03 05:35:00,
2013-03-02 23:40:00,6.6,3.1,30.13,ENE,63,0.0,0.0,85,0.00,,SKC,0.00,VWS V14.01,2013-03-03 05:40:00,
2013-03-02 23:45:00,6.6,3.3,30.13,ENE,63,0.0,0.0,86,0.00,,SKC,0.00,VWS V14.01,2013-03-03 05:45:00,
2013-03-02 23:50:00,6.5,3.2,30.13,ENE,63,0.0,0.0,86,0.00,,SKC,0.00,VWS V14.01,2013-03-03 05:50:00,
2013-03-02 23:55:00,6.2,2.9,30.13,ENE,63,0.0,0.0,86,0.00,,SKC,0.00,VWS V14.01,2013-03-03 05:55:00,